Valley Fork, West Virginia
Current Conditions -  °F | °C
As of 6:54 AM on Thursday 23 Oct 2014 (Local Time) from KCRW Reporting Station
Overcast Overcast  
Wind Chill: 47°   Ceiling: 3900
Heat Index: 47°   Visibility: 10mi
Dew Point: 41°   Wind: 3mph
Humidity: 80%   Direction: 300°WNW
Pressure: 30.19"   Gusts: NA
Location:  38.52°N, 81.12°W
Report Text: KCRW 231054Z 30003KT 10SM OVC039 08/05 A3019 RMK AO2 SLP225 T00830050
Loading
Personal Weather Stations






























Interactive Weather Map
Tropical Storm Tracking
New forecast layout! Learn more

10-Day Weather Forecast

Advertisements
Track Severe Weather on mobile